sensor_id;sensor_type;location;lat;lon;timestamp;pressure;altitude;pressure_sealevel;temperature;humidity
72157;BME280;60035;52.122;5.406;2022-09-29T00:00:15;100223.19;;;5.57;93.19
72157;BME280;60035;52.122;5.406;2022-09-29T00:02:41;100228.31;;;5.56;93.09
72157;BME280;60035;52.122;5.406;2022-09-29T00:05:08;100229.09;;;5.58;93.23
72157;BME280;60035;52.122;5.406;2022-09-29T00:07:35;100225.75;;;5.54;92.81
72157;BME280;60035;52.122;5.406;2022-09-29T00:10:02;100232.56;;;5.54;93.13
72157;BME280;60035;52.122;5.406;2022-09-29T00:12:29;100228.47;;;5.46;92.67
72157;BME280;60035;52.122;5.406;2022-09-29T00:14:56;100225.19;;;5.40;93.09
72157;BME280;60035;52.122;5.406;2022-09-29T00:17:23;100228.63;;;5.37;92.83
72157;BME280;60035;52.122;5.406;2022-09-29T00:19:50;100221.00;;;5.39;92.81
72157;BME280;60035;52.122;5.406;2022-09-29T00:22:16;100228.72;;;5.32;92.77
72157;BME280;60035;52.122;5.406;2022-09-29T00:24:43;100232.16;;;5.28;93.13
72157;BME280;60035;52.122;5.406;2022-09-29T00:27:09;100226.25;;;5.28;92.77
72157;BME280;60035;52.122;5.406;2022-09-29T00:29:35;100221.19;;;5.26;92.90
72157;BME280;60035;52.122;5.406;2022-09-29T00:32:02;100225.44;;;5.26;93.27
72157;BME280;60035;52.122;5.406;2022-09-29T00:34:28;100221.19;;;5.28;92.77
72157;BME280;60035;52.122;5.406;2022-09-29T00:36:55;100220.41;;;5.24;92.76
72157;BME280;60035;52.122;5.406;2022-09-29T00:39:21;100219.66;;;5.17;92.87
72157;BME280;60035;52.122;5.406;2022-09-29T00:41:48;100219.69;;;5.14;92.82
72157;BME280;60035;52.122;5.406;2022-09-29T00:46:54;100219.88;;;5.04;93.54
72157;BME280;60035;52.122;5.406;2022-09-29T00:52:18;100217.47;;;4.97;93.15
72157;BME280;60035;52.122;5.406;2022-09-29T00:54:50;100220.03;;;4.94;93.47
72157;BME280;60035;52.122;5.406;2022-09-29T00:57:20;100218.34;;;4.95;93.27
72157;BME280;60035;52.122;5.406;2022-09-29T01:02:18;100224.38;;;4.88;92.97
72157;BME280;60035;52.122;5.406;2022-09-29T01:04:50;100225.19;;;4.90;92.86
72157;BME280;60035;52.122;5.406;2022-09-29T01:07:21;100226.91;;;4.88;93.36
72157;BME280;60035;52.122;5.406;2022-09-29T01:09:49;100221.97;;;4.78;93.10
72157;BME280;60035;52.122;5.406;2022-09-29T01:12:19;100222.06;;;4.72;93.52
72157;BME280;60035;52.122;5.406;2022-09-29T01:14:46;100220.41;;;4.71;93.45
72157;BME280;60035;52.122;5.406;2022-09-29T01:17:13;100230.56;;;4.71;93.72
72157;BME280;60035;52.122;5.406;2022-09-29T01:22:47;100225.50;;;4.70;93.70
72157;BME280;60035;52.122;5.406;2022-09-29T01:25:35;100227.31;;;4.61;93.71
72157;BME280;60035;52.122;5.406;2022-09-29T01:31:03;100224.16;;;4.45;93.99
72157;BME280;60035;52.122;5.406;2022-09-29T01:34:08;100226.69;;;4.45;94.27
72157;BME280;60035;52.122;5.406;2022-09-29T01:36:47;100233.47;;;4.45;93.89
72157;BME280;60035;52.122;5.406;2022-09-29T01:39:29;100228.44;;;4.42;93.94
72157;BME280;60035;52.122;5.406;2022-09-29T01:42:00;100229.25;;;4.44;93.98
72157;BME280;60035;52.122;5.406;2022-09-29T01:47:10;100225.78;;;4.49;93.63
72157;BME280;60035;52.122;5.406;2022-09-29T01:49:42;100227.47;;;4.50;93.28
72157;BME280;60035;52.122;5.406;2022-09-29T01:52:14;100235.94;;;4.49;93.27
72157;BME280;60035;52.122;5.406;2022-09-29T01:54:46;100228.28;;;4.51;93.29
72157;BME280;60035;52.122;5.406;2022-09-29T01:57:49;100231.72;;;4.48;93.21
72157;BME280;60035;52.122;5.406;2022-09-29T02:00:17;100234.34;;;4.42;93.47
72157;BME280;60035;52.122;5.406;2022-09-29T02:02:54;100231.00;;;4.40;93.39
72157;BME280;60035;52.122;5.406;2022-09-29T02:05:33;100233.50;;;4.43;93.43
72157;BME280;60035;52.122;5.406;2022-09-29T02:08:08;100234.31;;;4.44;93.79
72157;BME280;60035;52.122;5.406;2022-09-29T02:10:44;100233.50;;;4.42;93.55
72157;BME280;60035;52.122;5.406;2022-09-29T02:13:14;100235.25;;;4.38;93.37
72157;BME280;60035;52.122;5.406;2022-09-29T02:15:44;100236.91;;;4.41;93.70
72157;BME280;60035;52.122;5.406;2022-09-29T02:18:22;100238.63;;;4.39;93.61
72157;BME280;60035;52.122;5.406;2022-09-29T02:20:49;100230.19;;;4.38;93.52
72157;BME280;60035;52.122;5.406;2022-09-29T02:23:16;100231.91;;;4.36;93.22
72157;BME280;60035;52.122;5.406;2022-09-29T02:25:43;100237.03;;;4.30;93.62
72157;BME280;60035;52.122;5.406;2022-09-29T02:28:14;100227.81;;;4.26;93.10
72157;BME280;60035;52.122;5.406;2022-09-29T02:30:41;100233.75;;;4.23;93.42
72157;BME280;60035;52.122;5.406;2022-09-29T02:33:22;100230.38;;;4.23;93.21
72157;BME280;60035;52.122;5.406;2022-09-29T02:39:00;100235.47;;;4.23;92.99
72157;BME280;60035;52.122;5.406;2022-09-29T02:41:42;100232.09;;;4.21;93.26
72157;BME280;60035;52.122;5.406;2022-09-29T02:44:20;100236.25;;;4.26;93.23
72157;BME280;60035;52.122;5.406;2022-09-29T02:49:32;100231.22;;;4.23;93.45
72157;BME280;60035;52.122;5.406;2022-09-29T02:52:32;100231.28;;;4.19;93.18
72157;BME280;60035;52.122;5.406;2022-09-29T02:55:16;100233.81;;;4.19;93.25
72157;BME280;60035;52.122;5.406;2022-09-29T03:00:18;100239.00;;;4.09;92.84
72157;BME280;60035;52.122;5.406;2022-09-29T03:02:45;100231.50;;;4.02;92.91
72157;BME280;60035;52.122;5.406;2022-09-29T03:05:17;100233.16;;;4.04;93.11
72157;BME280;60035;52.122;5.406;2022-09-29T03:07:45;100232.31;;;4.05;93.30
72157;BME280;60035;52.122;5.406;2022-09-29T03:10:12;100236.63;;;3.98;93.30
72157;BME280;60035;52.122;5.406;2022-09-29T03:12:39;100241.81;;;3.88;93.13
72157;BME280;60035;52.122;5.406;2022-09-29T03:15:06;100233.44;;;3.79;93.29
72157;BME280;60035;52.122;5.406;2022-09-29T03:17:33;100233.50;;;3.76;93.47
72157;BME280;60035;52.122;5.406;2022-09-29T03:20:00;100232.66;;;3.77;93.71
72157;BME280;60035;52.122;5.406;2022-09-29T03:22:27;100231.78;;;3.78;93.92
72157;BME280;60035;52.122;5.406;2022-09-29T03:24:53;100234.31;;;3.78;93.82
72157;BME280;60035;52.122;5.406;2022-09-29T03:27:20;100233.44;;;3.79;93.76
72157;BME280;60035;52.122;5.406;2022-09-29T03:29:46;100233.44;;;3.79;94.04
72157;BME280;60035;52.122;5.406;2022-09-29T03:32:12;100236.84;;;3.80;94.13
72157;BME280;60035;52.122;5.406;2022-09-29T03:34:39;100227.56;;;3.77;93.86
72157;BME280;60035;52.122;5.406;2022-09-29T03:37:05;100230.97;;;3.76;94.05
72157;BME280;60035;52.122;5.406;2022-09-29T03:39:32;100230.06;;;3.80;94.05
72157;BME280;60035;52.122;5.406;2022-09-29T03:41:58;100240.28;;;3.71;94.22
72157;BME280;60035;52.122;5.406;2022-09-29T03:44:25;100237.81;;;3.65;94.13
72157;BME280;60035;52.122;5.406;2022-09-29T03:46:51;100243.75;;;3.62;94.12
72157;BME280;60035;52.122;5.406;2022-09-29T03:49:18;100242.91;;;3.63;94.14
72157;BME280;60035;52.122;5.406;2022-09-29T03:51:46;100249.63;;;3.66;94.22
72157;BME280;60035;52.122;5.406;2022-09-29T03:54:12;100250.44;;;3.70;94.64
72157;BME280;60035;52.122;5.406;2022-09-29T03:56:39;100248.75;;;3.70;94.55
72157;BME280;60035;52.122;5.406;2022-09-29T03:59:05;100251.31;;;3.67;94.64
72157;BME280;60035;52.122;5.406;2022-09-29T04:01:35;100253.81;;;3.69;94.80
72157;BME280;60035;52.122;5.406;2022-09-29T04:04:04;100252.97;;;3.70;94.69
72157;BME280;60035;52.122;5.406;2022-09-29T04:06:32;100256.34;;;3.70;94.92
72157;BME280;60035;52.122;5.406;2022-09-29T04:08:58;100258.84;;;3.75;94.89
72157;BME280;60035;52.122;5.406;2022-09-29T04:11:25;100257.06;;;3.81;94.80
72157;BME280;60035;52.122;5.406;2022-09-29T04:13:51;100261.38;;;3.73;94.26
72157;BME280;60035;52.122;5.406;2022-09-29T04:16:18;100265.63;;;3.70;94.38
72157;BME280;60035;52.122;5.406;2022-09-29T04:18:44;100262.25;;;3.69;94.55
72157;BME280;60035;52.122;5.406;2022-09-29T04:21:11;100266.56;;;3.64;94.78
72157;BME280;60035;52.122;5.406;2022-09-29T04:23:37;100270.78;;;3.62;94.85
72157;BME280;60035;52.122;5.406;2022-09-29T04:26:04;100275.03;;;3.57;94.85
72157;BME280;60035;52.122;5.406;2022-09-29T04:28:32;100277.53;;;3.61;94.91
72157;BME280;60035;52.122;5.406;2022-09-29T04:30:59;100279.19;;;3.65;95.00
72157;BME280;60035;52.122;5.406;2022-09-29T04:33:26;100285.13;;;3.61;94.98
72157;BME280;60035;52.122;5.406;2022-09-29T04:35:53;100276.78;;;3.50;95.12
72157;BME280;60035;52.122;5.406;2022-09-29T04:38:19;100282.69;;;3.49;95.06
72157;BME280;60035;52.122;5.406;2022-09-29T04:40:47;100286.09;;;3.46;94.99
72157;BME280;60035;52.122;5.406;2022-09-29T04:43:13;100281.13;;;3.40;94.84
72157;BME280;60035;52.122;5.406;2022-09-29T04:45:40;100288.69;;;3.39;95.13
72157;BME280;60035;52.122;5.406;2022-09-29T04:48:07;100286.19;;;3.40;95.22
72157;BME280;60035;52.122;5.406;2022-09-29T04:50:33;100281.06;;;3.43;95.18
72157;BME280;60035;52.122;5.406;2022-09-29T04:53:00;100283.63;;;3.42;95.20
72157;BME280;60035;52.122;5.406;2022-09-29T04:55:26;100282.78;;;3.40;94.82
72157;BME280;60035;52.122;5.406;2022-09-29T04:57:54;100288.72;;;3.40;94.97
72157;BME280;60035;52.122;5.406;2022-09-29T05:00:20;100286.97;;;3.42;94.95
72157;BME280;60035;52.122;5.406;2022-09-29T05:02:47;100288.72;;;3.40;94.96
72157;BME280;60035;52.122;5.406;2022-09-29T05:05:15;100291.28;;;3.34;94.77
72157;BME280;60035;52.122;5.406;2022-09-29T05:07:42;100293.84;;;3.31;94.91
72157;BME280;60035;52.122;5.406;2022-09-29T05:10:09;100294.69;;;3.31;94.72
72157;BME280;60035;52.122;5.406;2022-09-29T05:12:36;100298.91;;;3.29;94.90
72157;BME280;60035;52.122;5.406;2022-09-29T05:15:03;100296.41;;;3.26;94.69
72157;BME280;60035;52.122;5.406;2022-09-29T05:17:30;100302.34;;;3.22;94.87
72157;BME280;60035;52.122;5.406;2022-09-29T05:19:56;100299.00;;;3.17;94.66
72157;BME280;60035;52.122;5.406;2022-09-29T05:22:23;100294.78;;;3.21;94.77
72157;BME280;60035;52.122;5.406;2022-09-29T05:24:51;100303.19;;;3.21;94.81
72157;BME280;60035;52.122;5.406;2022-09-29T05:27:18;100307.44;;;3.19;94.67
72157;BME280;60035;52.122;5.406;2022-09-29T05:29:45;100310.06;;;3.08;94.71
72157;BME280;60035;52.122;5.406;2022-09-29T05:32:11;100316.81;;;3.06;94.67
72157;BME280;60035;52.122;5.406;2022-09-29T05:34:38;100316.75;;;3.11;94.67
72157;BME280;60035;52.122;5.406;2022-09-29T05:37:05;100315.94;;;3.09;94.79
72157;BME280;60035;52.122;5.406;2022-09-29T05:39:31;100321.03;;;3.06;94.61
72157;BME280;60035;52.122;5.406;2022-09-29T05:42:00;100331.09;;;3.12;94.88
72157;BME280;60035;52.122;5.406;2022-09-29T05:44:28;100326.00;;;3.16;94.72
72157;BME280;60035;52.122;5.406;2022-09-29T05:46:54;100332.72;;;3.21;94.59
72157;BME280;60035;52.122;5.406;2022-09-29T05:49:21;100331.00;;;3.23;94.54
72157;BME280;60035;52.122;5.406;2022-09-29T05:51:48;100331.03;;;3.24;94.93
72157;BME280;60035;52.122;5.406;2022-09-29T05:54:14;100339.41;;;3.26;94.70
72157;BME280;60035;52.122;5.406;2022-09-29T05:56:41;100342.75;;;3.33;94.53
72157;BME280;60035;52.122;5.406;2022-09-29T05:59:11;100344.38;;;3.37;94.94
72157;BME280;60035;52.122;5.406;2022-09-29T06:01:38;100342.66;;;3.42;95.08
72157;BME280;60035;52.122;5.406;2022-09-29T06:04:04;100340.13;;;3.45;95.13
72157;BME280;60035;52.122;5.406;2022-09-29T06:06:31;100349.38;;;3.49;95.07
72157;BME280;60035;52.122;5.406;2022-09-29T06:08:58;100342.56;;;3.53;95.06
72157;BME280;60035;52.122;5.406;2022-09-29T06:11:27;100344.28;;;3.53;95.29
72157;BME280;60035;52.122;5.406;2022-09-29T06:13:54;100345.13;;;3.52;95.03
72157;BME280;60035;52.122;5.406;2022-09-29T06:16:23;100351.00;;;3.55;95.41
72157;BME280;60035;52.122;5.406;2022-09-29T06:18:51;100350.97;;;3.57;95.16
72157;BME280;60035;52.122;5.406;2022-09-29T06:21:24;100345.84;;;3.64;95.54
72157;BME280;60035;52.122;5.406;2022-09-29T06:23:53;100348.34;;;3.71;95.40
72157;BME280;60035;52.122;5.406;2022-09-29T06:26:20;100356.69;;;3.79;95.54
72157;BME280;60035;52.122;5.406;2022-09-29T06:28:50;100353.28;;;3.83;95.61
72157;BME280;60035;52.122;5.406;2022-09-29T06:31:19;100351.50;;;3.91;95.79
72157;BME280;60035;52.122;5.406;2022-09-29T06:33:46;100359.84;;;3.99;95.86
72157;BME280;60035;52.122;5.406;2022-09-29T06:36:17;100363.97;;;4.10;95.70
72157;BME280;60035;52.122;5.406;2022-09-29T06:39:05;100359.59;;;4.24;96.05
72157;BME280;60035;52.122;5.406;2022-09-29T06:41:31;100361.19;;;4.34;95.79
72157;BME280;60035;52.122;5.406;2022-09-29T06:43:58;100366.19;;;4.39;96.16
72157;BME280;60035;52.122;5.406;2022-09-29T06:46:24;100363.56;;;4.47;96.13
72157;BME280;60035;52.122;5.406;2022-09-29T06:48:53;100366.88;;;4.55;96.43
72157;BME280;60035;52.122;5.406;2022-09-29T06:51:20;100370.94;;;4.65;96.17
72157;BME280;60035;52.122;5.406;2022-09-29T06:54:06;100377.56;;;4.77;96.27
72157;BME280;60035;52.122;5.406;2022-09-29T06:56:38;100374.94;;;4.83;96.19
72157;BME280;60035;52.122;5.406;2022-09-29T06:59:06;100379.06;;;4.92;96.30
72157;BME280;60035;52.122;5.406;2022-09-29T07:01:32;100380.59;;;5.04;96.45
72157;BME280;60035;52.122;5.406;2022-09-29T07:03:59;100380.47;;;5.12;96.45
72157;BME280;60035;52.122;5.406;2022-09-29T07:06:28;100389.66;;;5.21;96.68
72157;BME280;60035;52.122;5.406;2022-09-29T07:08:56;100389.59;;;5.25;96.32
72157;BME280;60035;52.122;5.406;2022-09-29T07:11:24;100386.19;;;5.28;95.89
72157;BME280;60035;52.122;5.406;2022-09-29T07:13:52;100381.78;;;5.38;96.52
72157;BME280;60035;52.122;5.406;2022-09-29T07:16:20;100386.81;;;5.41;96.14
72157;BME280;60035;52.122;5.406;2022-09-29T07:18:49;100390.13;;;5.46;96.28
72157;BME280;60035;52.122;5.406;2022-09-29T07:21:17;100392.59;;;5.50;96.46
72157;BME280;60035;52.122;5.406;2022-09-29T07:23:45;100401.88;;;5.53;95.90
72157;BME280;60035;52.122;5.406;2022-09-29T07:26:13;100403.47;;;5.59;95.74
72157;BME280;60035;52.122;5.406;2022-09-29T07:28:42;100405.81;;;5.71;96.15
72157;BME280;60035;52.122;5.406;2022-09-29T07:31:11;100411.75;;;5.70;95.94
72157;BME280;60035;52.122;5.406;2022-09-29T07:33:42;100414.25;;;5.73;95.91
72157;BME280;60035;52.122;5.406;2022-09-29T07:36:09;100418.31;;;5.83;96.14
72157;BME280;60035;52.122;5.406;2022-09-29T07:38:35;100414.69;;;5.97;95.83
72157;BME280;60035;52.122;5.406;2022-09-29T07:41:03;100415.44;;;6.05;95.72
72157;BME280;60035;52.122;5.406;2022-09-29T07:43:30;100421.16;;;6.15;95.80
72157;BME280;60035;52.122;5.406;2022-09-29T07:45:57;100415.00;;;6.30;96.51
72157;BME280;60035;52.122;5.406;2022-09-29T07:48:26;100424.13;;;6.39;96.17
72157;BME280;60035;52.122;5.406;2022-09-29T07:53:35;100428.25;;;6.46;95.70
72157;BME280;60035;52.122;5.406;2022-09-29T07:56:10;100433.34;;;6.46;95.73
72157;BME280;60035;52.122;5.406;2022-09-29T07:58:37;100444.91;;;6.61;96.31
72157;BME280;60035;52.122;5.406;2022-09-29T08:01:05;100443.84;;;6.73;95.80
72157;BME280;60035;52.122;5.406;2022-09-29T08:03:36;100440.16;;;6.86;96.34
72157;BME280;60035;52.122;5.406;2022-09-29T08:06:05;100448.34;;;7.00;95.91
72157;BME280;60035;52.122;5.406;2022-09-29T08:08:34;100447.28;;;7.11;96.05
72157;BME280;60035;52.122;5.406;2022-09-29T08:11:07;100450.41;;;7.24;95.77
72157;BME280;60035;52.122;5.406;2022-09-29T08:13:36;100449.28;;;7.37;95.69
72157;BME280;60035;52.122;5.406;2022-09-29T08:16:05;100455.81;;;7.47;95.84
72157;BME280;60035;52.122;5.406;2022-09-29T08:18:33;100458.16;;;7.57;95.34
72157;BME280;60035;52.122;5.406;2022-09-29T08:21:01;100452.84;;;7.66;95.34
72157;BME280;60035;52.122;5.406;2022-09-29T08:23:30;100458.38;;;7.83;95.46
72157;BME280;60035;52.122;5.406;2022-09-29T08:26:08;100465.47;;;8.05;95.26
72157;BME280;60035;52.122;5.406;2022-09-29T08:28:37;100462.59;;;8.17;95.12
72157;BME280;60035;52.122;5.406;2022-09-29T08:31:15;100469.28;;;8.23;94.60
72157;BME280;60035;52.122;5.406;2022-09-29T08:33:47;100468.19;;;8.32;94.52
72157;BME280;60035;52.122;5.406;2022-09-29T08:36:19;100471.41;;;8.40;93.76
72157;BME280;60035;52.122;5.406;2022-09-29T08:38:48;100477.00;;;8.55;93.67
72157;BME280;60035;52.122;5.406;2022-09-29T08:41:25;100480.09;;;8.66;93.63
72157;BME280;60035;52.122;5.406;2022-09-29T08:44:02;100481.56;;;8.75;93.47
72157;BME280;60035;52.122;5.406;2022-09-29T08:46:34;100483.94;;;8.81;93.26
72157;BME280;60035;52.122;5.406;2022-09-29T08:49:14;100484.81;;;8.80;92.97
72157;BME280;60035;52.122;5.406;2022-09-29T08:52:05;100494.78;;;8.89;92.88
72157;BME280;60035;52.122;5.406;2022-09-29T08:54:44;100488.44;;;9.03;93.06
72157;BME280;60035;52.122;5.406;2022-09-29T08:57:16;100492.56;;;9.07;92.98
72157;BME280;60035;52.122;5.406;2022-09-29T08:59:56;100496.44;;;9.20;92.91
72157;BME280;60035;52.122;5.406;2022-09-29T09:08:12;100506.22;;;9.36;92.21
72157;BME280;60035;52.122;5.406;2022-09-29T09:10:46;100507.09;;;9.34;91.67
72157;BME280;60035;52.122;5.406;2022-09-29T09:16:14;100507.97;;;9.62;91.88
72157;BME280;60035;52.122;5.406;2022-09-29T09:19:03;100509.91;;;9.82;91.59
72157;BME280;60035;52.122;5.406;2022-09-29T09:21:43;100509.50;;;9.94;90.87
72157;BME280;60035;52.122;5.406;2022-09-29T09:26:58;100515.50;;;9.93;91.10
72157;BME280;60035;52.122;5.406;2022-09-29T09:29:34;100512.63;;;10.04;91.17
72157;BME280;60035;52.122;5.406;2022-09-29T09:32:09;100508.78;;;10.16;90.77
72157;BME280;60035;52.122;5.406;2022-09-29T09:34:42;100507.34;;;10.09;90.48
72157;BME280;60035;52.122;5.406;2022-09-29T09:37:24;100511.41;;;10.14;90.50
72157;BME280;60035;52.122;5.406;2022-09-29T09:39:55;100516.13;;;10.27;90.47
72157;BME280;60035;52.122;5.406;2022-09-29T09:42:26;100510.19;;;10.52;90.37
72157;BME280;60035;52.122;5.406;2022-09-29T09:45:07;100515.59;;;10.69;90.00
72157;BME280;60035;52.122;5.406;2022-09-29T09:47:41;100515.75;;;10.88;89.69
72157;BME280;60035;52.122;5.406;2022-09-29T09:50:15;100520.31;;;11.04;89.23
72157;BME280;60035;52.122;5.406;2022-09-29T09:52:48;100513.34;;;11.07;88.84
72157;BME280;60035;52.122;5.406;2022-09-29T09:55:19;100517.47;;;11.11;88.38
72157;BME280;60035;52.122;5.406;2022-09-29T09:58:03;100513.97;;;11.14;87.86
72157;BME280;60035;52.122;5.406;2022-09-29T10:00:41;100524.59;;;11.27;87.70
72157;BME280;60035;52.122;5.406;2022-09-29T10:03:08;100517.28;;;11.40;87.67
72157;BME280;60035;52.122;5.406;2022-09-29T10:05:38;100520.72;;;11.61;87.02
72157;BME280;60035;52.122;5.406;2022-09-29T10:08:10;100510.41;;;11.84;86.89
72157;BME280;60035;52.122;5.406;2022-09-29T10:10:39;100513.41;;;12.16;86.70
72157;BME280;60035;52.122;5.406;2022-09-29T10:13:25;100507.56;;;12.33;85.90
72157;BME280;60035;52.122;5.406;2022-09-29T10:15:56;100511.09;;;12.31;85.31
72157;BME280;60035;52.122;5.406;2022-09-29T10:18:29;100507.44;;;12.37;85.21
72157;BME280;60035;52.122;5.406;2022-09-29T10:20:56;100506.47;;;12.60;85.14
72157;BME280;60035;52.122;5.406;2022-09-29T10:23:32;100509.34;;;12.73;84.16
72157;BME280;60035;52.122;5.406;2022-09-29T10:26:15;100519.47;;;12.76;83.59
72157;BME280;60035;52.122;5.406;2022-09-29T10:29:01;100520.66;;;12.88;82.65
72157;BME280;60035;52.122;5.406;2022-09-29T10:31:33;100516.81;;;12.77;82.01
72157;BME280;60035;52.122;5.406;2022-09-29T10:34:22;100511.22;;;12.88;82.68
72157;BME280;60035;52.122;5.406;2022-09-29T10:42:23;100511.09;;;13.48;82.31
72157;BME280;60035;52.122;5.406;2022-09-29T10:45:10;100515.66;;;13.78;81.62
72157;BME280;60035;52.122;5.406;2022-09-29T10:47:37;100515.22;;;13.88;79.51
72157;BME280;60035;52.122;5.406;2022-09-29T10:52:58;100514.31;;;14.24;79.86
72157;BME280;60035;52.122;5.406;2022-09-29T10:55:28;100514.59;;;14.35;78.48
72157;BME280;60035;52.122;5.406;2022-09-29T10:57:58;100515.63;;;14.48;77.34
72157;BME280;60035;52.122;5.406;2022-09-29T11:00:33;100522.00;;;14.59;76.38
72157;BME280;60035;52.122;5.406;2022-09-29T11:05:52;100519.16;;;14.81;75.63
72157;BME280;60035;52.122;5.406;2022-09-29T11:08:19;100513.00;;;14.68;73.33
72157;BME280;60035;52.122;5.406;2022-09-29T11:17:25;100513.03;;;15.15;73.67
72157;BME280;60035;52.122;5.406;2022-09-29T11:19:54;100520.38;;;15.23;72.42
72157;BME280;60035;52.122;5.406;2022-09-29T11:30:21;100511.03;;;15.99;70.66
72157;BME280;60035;52.122;5.406;2022-09-29T11:38:30;100515.81;;;15.91;67.91
72157;BME280;60035;52.122;5.406;2022-09-29T11:55:06;100517.66;;;16.77;64.25
72157;BME280;60035;52.122;5.406;2022-09-29T11:58:00;100517.94;;;17.01;63.67
72157;BME280;60035;52.122;5.406;2022-09-29T12:00:49;100520.31;;;17.19;63.05
72157;BME280;60035;52.122;5.406;2022-09-29T12:03:30;100527.84;;;17.36;62.38
72157;BME280;60035;52.122;5.406;2022-09-29T12:17:36;100531.41;;;18.15;56.74
72157;BME280;60035;52.122;5.406;2022-09-29T12:20:36;100532.47;;;18.26;58.53
72157;BME280;60035;52.122;5.406;2022-09-29T12:23:09;100538.56;;;18.25;56.43
72157;BME280;60035;52.122;5.406;2022-09-29T12:25:41;100536.59;;;18.41;56.73
72157;BME280;60035;52.122;5.406;2022-09-29T12:28:15;100537.00;;;18.61;55.20
72157;BME280;60035;52.122;5.406;2022-09-29T12:30:47;100541.22;;;19.01;55.59
72157;BME280;60035;52.122;5.406;2022-09-29T12:33:24;100540.59;;;19.10;54.66
72157;BME280;60035;52.122;5.406;2022-09-29T12:36:24;100529.19;;;19.00;52.90
72157;BME280;60035;52.122;5.406;2022-09-29T12:45:45;100532.94;;;19.33;51.87
72157;BME280;60035;52.122;5.406;2022-09-29T12:52:59;100534.91;;;18.02;55.90
72157;BME280;60035;52.122;5.406;2022-09-29T12:58:34;100531.63;;;17.85;57.53
72157;BME280;60035;52.122;5.406;2022-09-29T13:04:11;100533.59;;;18.22;55.84
72157;BME280;60035;52.122;5.406;2022-09-29T13:10:22;100538.16;;;18.44;55.17
72157;BME280;60035;52.122;5.406;2022-09-29T13:20:38;100543.22;;;18.45;54.32
72157;BME280;60035;52.122;5.406;2022-09-29T13:26:15;100546.75;;;17.78;56.87
72157;BME280;60035;52.122;5.406;2022-09-29T13:29:01;100551.44;;;17.59;54.95
72157;BME280;60035;52.122;5.406;2022-09-29T13:31:35;100563.75;;;17.28;54.99
72157;BME280;60035;52.122;5.406;2022-09-29T13:34:04;100563.75;;;17.13;58.03
72157;BME280;60035;52.122;5.406;2022-09-29T13:36:40;100569.41;;;16.91;58.58
72157;BME280;60035;52.122;5.406;2022-09-29T13:39:22;100563.28;;;16.78;59.28
72157;BME280;60035;52.122;5.406;2022-09-29T13:41:54;100559.03;;;16.62;60.00
72157;BME280;60035;52.122;5.406;2022-09-29T13:44:27;100572.13;;;16.45;60.60
72157;BME280;60035;52.122;5.406;2022-09-29T13:46:55;100559.53;;;16.39;61.20
72157;BME280;60035;52.122;5.406;2022-09-29T13:49:25;100569.94;;;16.23;61.87
72157;BME280;60035;52.122;5.406;2022-09-29T13:52:38;100571.28;;;16.14;62.24
72157;BME280;60035;52.122;5.406;2022-09-29T13:55:46;100571.81;;;16.05;62.31
72157;BME280;60035;52.122;5.406;2022-09-29T13:58:21;100572.28;;;15.97;62.74
72157;BME280;60035;52.122;5.406;2022-09-29T14:01:00;100577.34;;;15.98;62.54
72157;BME280;60035;52.122;5.406;2022-09-29T14:03:43;100575.28;;;15.89;61.72
72157;BME280;60035;52.122;5.406;2022-09-29T14:06:23;100576.47;;;15.84;61.52
72157;BME280;60035;52.122;5.406;2022-09-29T14:09:14;100574.91;;;15.79;62.11
72157;BME280;60035;52.122;5.406;2022-09-29T14:11:48;100578.25;;;15.97;62.40
72157;BME280;60035;52.122;5.406;2022-09-29T14:14:33;100577.69;;;16.23;62.56
72157;BME280;60035;52.122;5.406;2022-09-29T14:17:19;100575.50;;;16.90;62.55
72157;BME280;60035;52.122;5.406;2022-09-29T14:27:46;100573.41;;;18.34;52.20
72157;BME280;60035;52.122;5.406;2022-09-29T14:30:42;100573.81;;;18.53;53.28
72157;BME280;60035;52.122;5.406;2022-09-29T14:33:21;100575.47;;;18.41;52.51
72157;BME280;60035;52.122;5.406;2022-09-29T14:36:12;100585.94;;;18.14;51.76
72157;BME280;60035;52.122;5.406;2022-09-29T14:38:42;100578.47;;;17.82;52.44
72157;BME280;60035;52.122;5.406;2022-09-29T14:41:26;100591.06;;;17.46;53.21
72157;BME280;60035;52.122;5.406;2022-09-29T14:44:07;100591.09;;;17.32;53.87
72157;BME280;60035;52.122;5.406;2022-09-29T14:46:58;100593.66;;;17.32;55.64
72157;BME280;60035;52.122;5.406;2022-09-29T14:55:53;100604.88;;;17.04;54.80
72157;BME280;60035;52.122;5.406;2022-09-29T15:01:26;100609.06;;;16.76;54.13
72157;BME280;60035;52.122;5.406;2022-09-29T15:04:04;100613.59;;;16.58;55.02
72157;BME280;60035;52.122;5.406;2022-09-29T15:06:31;100613.19;;;16.49;54.84
72157;BME280;60035;52.122;5.406;2022-09-29T15:09:02;100612.00;;;16.41;55.56
72157;BME280;60035;52.122;5.406;2022-09-29T15:14:30;100617.94;;;16.27;56.25
72157;BME280;60035;52.122;5.406;2022-09-29T15:17:27;100630.22;;;16.23;56.44
72157;BME280;60035;52.122;5.406;2022-09-29T15:20:21;100636.22;;;16.24;56.53
72157;BME280;60035;52.122;5.406;2022-09-29T15:23:07;100633.38;;;16.12;59.02
72157;BME280;60035;52.122;5.406;2022-09-29T15:25:39;100629.69;;;16.02;58.67
72157;BME280;60035;52.122;5.406;2022-09-29T15:28:14;100633.25;;;15.99;57.83
72157;BME280;60035;52.122;5.406;2022-09-29T15:30:43;100633.41;;;15.96;58.25
72157;BME280;60035;52.122;5.406;2022-09-29T15:33:25;100633.59;;;15.93;58.05
72157;BME280;60035;52.122;5.406;2022-09-29T15:35:58;100641.56;;;15.89;57.01
72157;BME280;60035;52.122;5.406;2022-09-29T15:38:28;100645.25;;;15.85;58.60
72157;BME280;60035;52.122;5.406;2022-09-29T15:41:02;100645.47;;;15.80;58.61
72157;BME280;60035;52.122;5.406;2022-09-29T15:43:40;100649.88;;;15.78;59.42
72157;BME280;60035;52.122;5.406;2022-09-29T15:51:37;100646.22;;;15.66;59.63
72157;BME280;60035;52.122;5.406;2022-09-29T15:54:05;100647.97;;;15.65;59.00
72157;BME280;60035;52.122;5.406;2022-09-29T15:56:36;100644.41;;;15.68;58.48